sensor_id;sensor_type;location;lat;lon;timestamp;temperature;humidity
5280;DHT22;2663;53.588;10.010;2023-02-28T00:01:29;6.10;99.90
5280;DHT22;2663;53.588;10.010;2023-02-28T00:03:57;6.10;99.90
5280;DHT22;2663;53.588;10.010;2023-02-28T00:06:24;6.10;99.90
5280;DHT22;2663;53.588;10.010;2023-02-28T00:08:50;6.10;99.90
5280;DHT22;2663;53.588;10.010;2023-02-28T00:11:17;6.00;99.90
5280;DHT22;2663;53.588;10.010;2023-02-28T00:13:45;5.90;99.90
5280;DHT22;2663;53.588;10.010;2023-02-28T00:16:15;5.90;99.90
5280;DHT22;2663;53.588;10.010;2023-02-28T00:18:42;5.80;99.90
5280;DHT22;2663;53.588;10.010;2023-02-28T00:21:09;5.80;99.90
5280;DHT22;2663;53.588;10.010;2023-02-28T00:23:36;5.80;99.90
5280;DHT22;2663;53.588;10.010;2023-02-28T00:26:03;5.80;99.90
5280;DHT22;2663;53.588;10.010;2023-02-28T00:28:30;5.90;99.90
5280;DHT22;2663;53.588;10.010;2023-02-28T00:30:57;5.80;99.90
5280;DHT22;2663;53.588;10.010;2023-02-28T00:33:24;5.80;99.90
5280;DHT22;2663;53.588;10.010;2023-02-28T00:35:51;5.80;99.90
5280;DHT22;2663;53.588;10.010;2023-02-28T00:38:18;5.80;99.90
5280;DHT22;2663;53.588;10.010;2023-02-28T00:40:45;5.70;99.90
5280;DHT22;2663;53.588;10.010;2023-02-28T00:43:11;5.70;99.90
5280;DHT22;2663;53.588;10.010;2023-02-28T00:45:38;5.70;99.90
5280;DHT22;2663;53.588;10.010;2023-02-28T00:48:05;5.70;99.90
5280;DHT22;2663;53.588;10.010;2023-02-28T00:50:32;5.70;99.90
5280;DHT22;2663;53.588;10.010;2023-02-28T00:52:59;5.80;99.90
5280;DHT22;2663;53.588;10.010;2023-02-28T00:55:25;5.70;99.90
5280;DHT22;2663;53.588;10.010;2023-02-28T00:57:52;5.70;99.90
5280;DHT22;2663;53.588;10.010;2023-02-28T01:00:19;5.70;99.90
5280;DHT22;2663;53.588;10.010;2023-02-28T01:02:45;5.70;99.90
5280;DHT22;2663;53.588;10.010;2023-02-28T01:05:12;5.70;99.90
5280;DHT22;2663;53.588;10.010;2023-02-28T01:07:39;5.70;99.90
5280;DHT22;2663;53.588;10.010;2023-02-28T01:10:06;5.70;99.90
5280;DHT22;2663;53.588;10.010;2023-02-28T01:12:32;5.70;99.90
5280;DHT22;2663;53.588;10.010;2023-02-28T01:14:59;5.70;99.90
5280;DHT22;2663;53.588;10.010;2023-02-28T01:17:26;5.70;99.90
5280;DHT22;2663;53.588;10.010;2023-02-28T01:19:54;5.60;99.90
5280;DHT22;2663;53.588;10.010;2023-02-28T01:22:22;5.60;99.90
5280;DHT22;2663;53.588;10.010;2023-02-28T01:24:48;5.50;99.90
5280;DHT22;2663;53.588;10.010;2023-02-28T01:27:15;5.50;99.90
5280;DHT22;2663;53.588;10.010;2023-02-28T01:29:42;5.50;99.90
5280;DHT22;2663;53.588;10.010;2023-02-28T01:32:08;5.50;99.90
5280;DHT22;2663;53.588;10.010;2023-02-28T01:34:35;5.60;99.90
5280;DHT22;2663;53.588;10.010;2023-02-28T01:37:02;5.60;99.90
5280;DHT22;2663;53.588;10.010;2023-02-28T01:39:29;5.60;99.90
5280;DHT22;2663;53.588;10.010;2023-02-28T01:41:56;5.60;99.90
5280;DHT22;2663;53.588;10.010;2023-02-28T01:44:55;5.60;99.90
5280;DHT22;2663;53.588;10.010;2023-02-28T01:47:23;5.60;99.90
5280;DHT22;2663;53.588;10.010;2023-02-28T01:49:52;5.60;99.90
5280;DHT22;2663;53.588;10.010;2023-02-28T01:52:19;5.60;99.90
5280;DHT22;2663;53.588;10.010;2023-02-28T01:54:51;5.50;99.90
5280;DHT22;2663;53.588;10.010;2023-02-28T01:57:22;5.70;99.90
5280;DHT22;2663;53.588;10.010;2023-02-28T01:59:54;5.50;99.90
5280;DHT22;2663;53.588;10.010;2023-02-28T02:02:26;5.50;99.90
5280;DHT22;2663;53.588;10.010;2023-02-28T02:05:03;5.50;99.90
5280;DHT22;2663;53.588;10.010;2023-02-28T02:07:33;5.40;99.90
5280;DHT22;2663;53.588;10.010;2023-02-28T02:10:04;5.30;99.90
5280;DHT22;2663;53.588;10.010;2023-02-28T02:12:43;5.30;99.90
5280;DHT22;2663;53.588;10.010;2023-02-28T02:15:22;5.40;99.90
5280;DHT22;2663;53.588;10.010;2023-02-28T02:17:52;5.40;99.90
5280;DHT22;2663;53.588;10.010;2023-02-28T02:23:54;5.40;99.90
5280;DHT22;2663;53.588;10.010;2023-02-28T02:26:32;5.50;99.90
5280;DHT22;2663;53.588;10.010;2023-02-28T02:37:44;5.30;99.90
5280;DHT22;2663;53.588;10.010;2023-02-28T02:43:19;5.20;99.90
5280;DHT22;2663;53.588;10.010;2023-02-28T02:45:56;5.40;99.90
5280;DHT22;2663;53.588;10.010;2023-02-28T02:48:26;5.20;99.90
5280;DHT22;2663;53.588;10.010;2023-02-28T02:50:57;5.20;99.90
5280;DHT22;2663;53.588;10.010;2023-02-28T02:53:30;5.10;99.90
5280;DHT22;2663;53.588;10.010;2023-02-28T02:55:59;5.10;99.90
5280;DHT22;2663;53.588;10.010;2023-02-28T02:58:31;5.00;99.90
5280;DHT22;2663;53.588;10.010;2023-02-28T03:01:00;5.00;99.90
5280;DHT22;2663;53.588;10.010;2023-02-28T03:03:29;4.90;99.90
5280;DHT22;2663;53.588;10.010;2023-02-28T03:05:59;5.00;99.90
5280;DHT22;2663;53.588;10.010;2023-02-28T03:08:27;4.90;99.90
5280;DHT22;2663;53.588;10.010;2023-02-28T03:11:00;4.90;99.90
5280;DHT22;2663;53.588;10.010;2023-02-28T03:13:53;4.80;99.90
5280;DHT22;2663;53.588;10.010;2023-02-28T03:16:36;4.90;99.90
5280;DHT22;2663;53.588;10.010;2023-02-28T03:21:59;4.70;99.90
5280;DHT22;2663;53.588;10.010;2023-02-28T03:27:47;4.60;99.90
5280;DHT22;2663;53.588;10.010;2023-02-28T03:30:38;4.50;99.90
5280;DHT22;2663;53.588;10.010;2023-02-28T03:33:12;4.40;99.90
5280;DHT22;2663;53.588;10.010;2023-02-28T03:36:02;4.40;99.90
5280;DHT22;2663;53.588;10.010;2023-02-28T03:38:44;4.40;99.90
5280;DHT22;2663;53.588;10.010;2023-02-28T03:41:36;4.40;99.90
5280;DHT22;2663;53.588;10.010;2023-02-28T03:44:16;4.40;99.90
5280;DHT22;2663;53.588;10.010;2023-02-28T03:46:54;4.40;99.90
5280;DHT22;2663;53.588;10.010;2023-02-28T03:49:34;4.40;99.90
5280;DHT22;2663;53.588;10.010;2023-02-28T03:52:03;4.30;99.90
5280;DHT22;2663;53.588;10.010;2023-02-28T03:54:36;4.30;99.90
5280;DHT22;2663;53.588;10.010;2023-02-28T03:57:10;4.20;99.90
5280;DHT22;2663;53.588;10.010;2023-02-28T03:59:48;4.20;99.90
5280;DHT22;2663;53.588;10.010;2023-02-28T04:02:16;4.30;99.90
5280;DHT22;2663;53.588;10.010;2023-02-28T04:04:43;4.20;99.90
5280;DHT22;2663;53.588;10.010;2023-02-28T04:07:15;4.10;99.90
5280;DHT22;2663;53.588;10.010;2023-02-28T04:09:42;4.00;99.90
5280;DHT22;2663;53.588;10.010;2023-02-28T04:12:09;3.90;99.90
5280;DHT22;2663;53.588;10.010;2023-02-28T04:14:35;3.80;99.90
5280;DHT22;2663;53.588;10.010;2023-02-28T04:17:02;3.90;99.90
5280;DHT22;2663;53.588;10.010;2023-02-28T04:19:28;3.90;99.90
5280;DHT22;2663;53.588;10.010;2023-02-28T04:21:55;3.90;99.90
5280;DHT22;2663;53.588;10.010;2023-02-28T04:24:24;3.90;99.90
5280;DHT22;2663;53.588;10.010;2023-02-28T04:26:54;4.00;99.90
5280;DHT22;2663;53.588;10.010;2023-02-28T04:29:25;3.90;99.90
5280;DHT22;2663;53.588;10.010;2023-02-28T04:31:52;3.90;99.90
5280;DHT22;2663;53.588;10.010;2023-02-28T04:34:25;3.90;99.90
5280;DHT22;2663;53.588;10.010;2023-02-28T04:36:54;3.90;99.90
5280;DHT22;2663;53.588;10.010;2023-02-28T04:39:37;3.90;99.90
5280;DHT22;2663;53.588;10.010;2023-02-28T04:42:04;3.80;99.90
5280;DHT22;2663;53.588;10.010;2023-02-28T04:44:31;3.90;99.90
5280;DHT22;2663;53.588;10.010;2023-02-28T04:46:58;3.90;99.90
5280;DHT22;2663;53.588;10.010;2023-02-28T04:49:25;4.00;99.90
5280;DHT22;2663;53.588;10.010;2023-02-28T04:51:52;3.80;99.90
5280;DHT22;2663;53.588;10.010;2023-02-28T04:54:19;3.70;99.90
5280;DHT22;2663;53.588;10.010;2023-02-28T04:56:46;3.70;99.90
5280;DHT22;2663;53.588;10.010;2023-02-28T04:59:14;3.60;99.90
5280;DHT22;2663;53.588;10.010;2023-02-28T05:01:46;3.60;99.90
5280;DHT22;2663;53.588;10.010;2023-02-28T05:04:13;3.60;99.90
5280;DHT22;2663;53.588;10.010;2023-02-28T05:06:40;3.60;99.90
5280;DHT22;2663;53.588;10.010;2023-02-28T05:09:06;3.60;99.90
5280;DHT22;2663;53.588;10.010;2023-02-28T05:11:34;3.60;99.90
5280;DHT22;2663;53.588;10.010;2023-02-28T05:14:03;3.50;99.90
5280;DHT22;2663;53.588;10.010;2023-02-28T05:16:31;3.50;99.90
5280;DHT22;2663;53.588;10.010;2023-02-28T05:18:58;3.40;99.90
5280;DHT22;2663;53.588;10.010;2023-02-28T05:21:32;3.40;99.90
5280;DHT22;2663;53.588;10.010;2023-02-28T05:24:05;3.40;99.90
5280;DHT22;2663;53.588;10.010;2023-02-28T05:26:35;3.40;99.90
5280;DHT22;2663;53.588;10.010;2023-02-28T05:29:02;3.40;99.90
5280;DHT22;2663;53.588;10.010;2023-02-28T05:31:29;3.40;99.90
5280;DHT22;2663;53.588;10.010;2023-02-28T05:33:56;3.50;99.90
5280;DHT22;2663;53.588;10.010;2023-02-28T05:36:23;3.40;99.90
5280;DHT22;2663;53.588;10.010;2023-02-28T05:38:50;3.30;99.90
5280;DHT22;2663;53.588;10.010;2023-02-28T05:41:18;3.40;99.90
5280;DHT22;2663;53.588;10.010;2023-02-28T05:43:46;3.30;99.90
5280;DHT22;2663;53.588;10.010;2023-02-28T05:46:13;3.30;99.90
5280;DHT22;2663;53.588;10.010;2023-02-28T05:48:41;3.30;99.90
5280;DHT22;2663;53.588;10.010;2023-02-28T05:51:08;3.40;99.90
5280;DHT22;2663;53.588;10.010;2023-02-28T05:53:35;3.50;99.90
5280;DHT22;2663;53.588;10.010;2023-02-28T05:56:03;3.40;99.90
5280;DHT22;2663;53.588;10.010;2023-02-28T05:58:30;3.30;99.90
5280;DHT22;2663;53.588;10.010;2023-02-28T06:00:58;3.30;99.90
5280;DHT22;2663;53.588;10.010;2023-02-28T06:03:26;3.40;99.90
5280;DHT22;2663;53.588;10.010;2023-02-28T06:05:53;3.30;99.90
5280;DHT22;2663;53.588;10.010;2023-02-28T06:08:20;3.30;99.90
5280;DHT22;2663;53.588;10.010;2023-02-28T06:10:46;3.20;99.90
5280;DHT22;2663;53.588;10.010;2023-02-28T06:13:13;2.00;99.90
5280;DHT22;2663;53.588;10.010;2023-02-28T06:15:40;3.20;99.90
5280;DHT22;2663;53.588;10.010;2023-02-28T06:18:08;3.10;99.90
5280;DHT22;2663;53.588;10.010;2023-02-28T06:20:34;3.20;99.90
5280;DHT22;2663;53.588;10.010;2023-02-28T06:23:02;3.10;99.90
5280;DHT22;2663;53.588;10.010;2023-02-28T06:25:29;3.20;99.90
5280;DHT22;2663;53.588;10.010;2023-02-28T06:27:56;3.10;99.90
5280;DHT22;2663;53.588;10.010;2023-02-28T06:30:22;3.20;99.90
5280;DHT22;2663;53.588;10.010;2023-02-28T06:32:52;3.20;99.90
5280;DHT22;2663;53.588;10.010;2023-02-28T06:35:19;3.20;99.90
5280;DHT22;2663;53.588;10.010;2023-02-28T06:37:45;3.20;99.90
5280;DHT22;2663;53.588;10.010;2023-02-28T06:40:13;3.30;99.90
5280;DHT22;2663;53.588;10.010;2023-02-28T06:42:40;3.20;99.90
5280;DHT22;2663;53.588;10.010;2023-02-28T06:45:07;3.30;99.90
5280;DHT22;2663;53.588;10.010;2023-02-28T06:47:38;3.20;99.90
5280;DHT22;2663;53.588;10.010;2023-02-28T06:50:06;3.20;99.90
5280;DHT22;2663;53.588;10.010;2023-02-28T06:52:33;3.20;99.90
5280;DHT22;2663;53.588;10.010;2023-02-28T06:55:04;3.10;99.90
5280;DHT22;2663;53.588;10.010;2023-02-28T06:57:33;3.10;99.90
5280;DHT22;2663;53.588;10.010;2023-02-28T07:00:02;3.20;99.90
5280;DHT22;2663;53.588;10.010;2023-02-28T07:02:29;3.20;99.90
5280;DHT22;2663;53.588;10.010;2023-02-28T07:04:56;3.10;99.90
5280;DHT22;2663;53.588;10.010;2023-02-28T07:07:23;3.10;99.90
5280;DHT22;2663;53.588;10.010;2023-02-28T07:09:50;4.60;99.90
5280;DHT22;2663;53.588;10.010;2023-02-28T07:12:17;3.20;99.90
5280;DHT22;2663;53.588;10.010;2023-02-28T07:14:43;3.30;99.90
5280;DHT22;2663;53.588;10.010;2023-02-28T07:17:10;3.30;99.90
5280;DHT22;2663;53.588;10.010;2023-02-28T07:19:39;3.50;99.90
5280;DHT22;2663;53.588;10.010;2023-02-28T07:22:06;3.50;99.90
5280;DHT22;2663;53.588;10.010;2023-02-28T07:24:33;3.50;99.90
5280;DHT22;2663;53.588;10.010;2023-02-28T07:27:00;3.60;99.90
5280;DHT22;2663;53.588;10.010;2023-02-28T07:29:28;3.70;99.90
5280;DHT22;2663;53.588;10.010;2023-02-28T07:31:54;3.70;99.90
5280;DHT22;2663;53.588;10.010;2023-02-28T07:34:22;3.70;99.90
5280;DHT22;2663;53.588;10.010;2023-02-28T07:36:48;3.80;99.90
5280;DHT22;2663;53.588;10.010;2023-02-28T07:39:20;3.70;99.90
5280;DHT22;2663;53.588;10.010;2023-02-28T07:41:47;4.00;99.90
5280;DHT22;2663;53.588;10.010;2023-02-28T07:44:14;4.00;99.90
5280;DHT22;2663;53.588;10.010;2023-02-28T07:46:44;4.00;99.90
5280;DHT22;2663;53.588;10.010;2023-02-28T07:49:10;4.10;99.90
5280;DHT22;2663;53.588;10.010;2023-02-28T07:51:37;4.20;99.90
5280;DHT22;2663;53.588;10.010;2023-02-28T07:54:04;4.70;99.90
5280;DHT22;2663;53.588;10.010;2023-02-28T07:56:31;4.90;99.90
5280;DHT22;2663;53.588;10.010;2023-02-28T07:58:58;5.00;99.90
5280;DHT22;2663;53.588;10.010;2023-02-28T08:01:24;5.10;99.90
5280;DHT22;2663;53.588;10.010;2023-02-28T08:03:51;5.00;99.90
5280;DHT22;2663;53.588;10.010;2023-02-28T08:06:20;5.00;99.90
5280;DHT22;2663;53.588;10.010;2023-02-28T08:08:48;4.80;99.90
5280;DHT22;2663;53.588;10.010;2023-02-28T08:11:16;4.90;99.90
5280;DHT22;2663;53.588;10.010;2023-02-28T08:13:44;5.00;99.90
5280;DHT22;2663;53.588;10.010;2023-02-28T08:16:12;5.10;99.90
5280;DHT22;2663;53.588;10.010;2023-02-28T08:18:41;5.10;99.90
5280;DHT22;2663;53.588;10.010;2023-02-28T08:21:09;5.10;99.90
5280;DHT22;2663;53.588;10.010;2023-02-28T08:23:36;5.20;99.90
5280;DHT22;2663;53.588;10.010;2023-02-28T08:26:03;5.10;99.90
5280;DHT22;2663;53.588;10.010;2023-02-28T08:28:30;5.20;99.90
5280;DHT22;2663;53.588;10.010;2023-02-28T08:30:58;5.30;99.90
5280;DHT22;2663;53.588;10.010;2023-02-28T08:33:27;5.40;99.90
5280;DHT22;2663;53.588;10.010;2023-02-28T08:35:56;5.40;99.90
5280;DHT22;2663;53.588;10.010;2023-02-28T08:38:23;5.50;99.90
5280;DHT22;2663;53.588;10.010;2023-02-28T08:40:57;5.80;99.90
5280;DHT22;2663;53.588;10.010;2023-02-28T08:43:24;5.70;99.90
5280;DHT22;2663;53.588;10.010;2023-02-28T08:45:52;5.80;99.90
5280;DHT22;2663;53.588;10.010;2023-02-28T08:48:19;5.80;99.90
5280;DHT22;2663;53.588;10.010;2023-02-28T08:51:04;5.80;99.90
5280;DHT22;2663;53.588;10.010;2023-02-28T08:53:35;5.80;99.90
5280;DHT22;2663;53.588;10.010;2023-02-28T08:56:07;5.70;99.90
5280;DHT22;2663;53.588;10.010;2023-02-28T08:58:34;6.00;99.90
5280;DHT22;2663;53.588;10.010;2023-02-28T09:01:11;6.00;99.90
5280;DHT22;2663;53.588;10.010;2023-02-28T09:03:39;5.90;99.90
5280;DHT22;2663;53.588;10.010;2023-02-28T09:06:08;6.00;99.90
5280;DHT22;2663;53.588;10.010;2023-02-28T09:08:36;6.00;99.20
5280;DHT22;2663;53.588;10.010;2023-02-28T09:11:04;6.10;98.70
5280;DHT22;2663;53.588;10.010;2023-02-28T09:13:31;6.10;99.60
5280;DHT22;2663;53.588;10.010;2023-02-28T09:16:04;6.10;98.50
5280;DHT22;2663;53.588;10.010;2023-02-28T09:18:33;6.10;98.00
5280;DHT22;2663;53.588;10.010;2023-02-28T09:21:03;6.10;97.60
5280;DHT22;2663;53.588;10.010;2023-02-28T09:23:31;6.20;97.80
5280;DHT22;2663;53.588;10.010;2023-02-28T09:25:57;6.30;97.30
5280;DHT22;2663;53.588;10.010;2023-02-28T09:28:24;6.20;97.20
5280;DHT22;2663;53.588;10.010;2023-02-28T09:30:53;6.30;97.10
5280;DHT22;2663;53.588;10.010;2023-02-28T09:33:21;6.50;97.00
5280;DHT22;2663;53.588;10.010;2023-02-28T09:35:49;6.50;97.20
5280;DHT22;2663;53.588;10.010;2023-02-28T09:38:16;6.60;97.40
5280;DHT22;2663;53.588;10.010;2023-02-28T09:40:50;6.80;97.00
5280;DHT22;2663;53.588;10.010;2023-02-28T09:43:20;6.60;96.50
5280;DHT22;2663;53.588;10.010;2023-02-28T09:48:45;7.00;97.00
5280;DHT22;2663;53.588;10.010;2023-02-28T09:54:15;7.10;95.90
5280;DHT22;2663;53.588;10.010;2023-02-28T09:56:49;7.10;96.30
5280;DHT22;2663;53.588;10.010;2023-02-28T10:02:16;7.30;95.90
5280;DHT22;2663;53.588;10.010;2023-02-28T10:07:50;6.90;95.90
5280;DHT22;2663;53.588;10.010;2023-02-28T10:10:29;7.10;96.10
5280;DHT22;2663;53.588;10.010;2023-02-28T10:13:00;7.20;95.90
5280;DHT22;2663;53.588;10.010;2023-02-28T10:15:30;7.30;95.90
5280;DHT22;2663;53.588;10.010;2023-02-28T10:18:02;7.50;96.10
5280;DHT22;2663;53.588;10.010;2023-02-28T10:20:38;7.60;95.60
5280;DHT22;2663;53.588;10.010;2023-02-28T10:23:11;7.50;95.20
5280;DHT22;2663;53.588;10.010;2023-02-28T10:25:40;7.60;95.10
5280;DHT22;2663;53.588;10.010;2023-02-28T10:28:14;7.70;95.80
5280;DHT22;2663;53.588;10.010;2023-02-28T10:30:45;7.90;95.40
5280;DHT22;2663;53.588;10.010;2023-02-28T10:33:24;8.00;94.90
5280;DHT22;2663;53.588;10.010;2023-02-28T10:35:52;8.10;94.40
5280;DHT22;2663;53.588;10.010;2023-02-28T10:38:25;8.00;93.80
5280;DHT22;2663;53.588;10.010;2023-02-28T10:41:06;8.10;93.60
5280;DHT22;2663;53.588;10.010;2023-02-28T10:43:33;7.90;93.50
5280;DHT22;2663;53.588;10.010;2023-02-28T10:46:04;7.90;92.80
5280;DHT22;2663;53.588;10.010;2023-02-28T10:51:14;7.90;92.80
5280;DHT22;2663;53.588;10.010;2023-02-28T10:53:49;7.70;92.90
5280;DHT22;2663;53.588;10.010;2023-02-28T10:56:29;7.60;92.90
5280;DHT22;2663;53.588;10.010;2023-02-28T10:59:21;7.70;93.20
5280;DHT22;2663;53.588;10.010;2023-02-28T11:01:50;7.80;93.30
5280;DHT22;2663;53.588;10.010;2023-02-28T11:04:23;7.90;92.80
5280;DHT22;2663;53.588;10.010;2023-02-28T11:07:21;8.00;93.00
5280;DHT22;2663;53.588;10.010;2023-02-28T11:09:53;8.10;92.50
5280;DHT22;2663;53.588;10.010;2023-02-28T11:15:01;8.10;92.00
5280;DHT22;2663;53.588;10.010;2023-02-28T11:17:30;8.10;92.30
5280;DHT22;2663;53.588;10.010;2023-02-28T11:20:18;8.10;92.20
5280;DHT22;2663;53.588;10.010;2023-02-28T11:22:47;8.20;92.40
5280;DHT22;2663;53.588;10.010;2023-02-28T11:25:22;8.20;91.60
5280;DHT22;2663;53.588;10.010;2023-02-28T11:27:52;8.30;91.50
5280;DHT22;2663;53.588;10.010;2023-02-28T11:32:57;7.80;91.20
5280;DHT22;2663;53.588;10.010;2023-02-28T11:35:28;8.10;90.90
5280;DHT22;2663;53.588;10.010;2023-02-28T11:37:57;8.10;90.70
5280;DHT22;2663;53.588;10.010;2023-02-28T11:40:39;7.90;91.10
5280;DHT22;2663;53.588;10.010;2023-02-28T11:43:13;8.00;90.70
5280;DHT22;2663;53.588;10.010;2023-02-28T11:51:28;8.20;91.40
5280;DHT22;2663;53.588;10.010;2023-02-28T11:57:00;8.80;90.90
5280;DHT22;2663;53.588;10.010;2023-02-28T11:59:59;7.50;89.40
5280;DHT22;2663;53.588;10.010;2023-02-28T12:02:53;8.80;89.10
5280;DHT22;2663;53.588;10.010;2023-02-28T12:06:13;8.80;90.00
5280;DHT22;2663;53.588;10.010;2023-02-28T12:11:29;8.60;88.50
5280;DHT22;2663;53.588;10.010;2023-02-28T12:14:27;8.60;87.90
5280;DHT22;2663;53.588;10.010;2023-02-28T12:19:57;8.30;88.10
5280;DHT22;2663;53.588;10.010;2023-02-28T12:22:29;8.40;87.90
5280;DHT22;2663;53.588;10.010;2023-02-28T12:27:43;8.50;87.30
5280;DHT22;2663;53.588;10.010;2023-02-28T12:30:21;8.40;87.00
5280;DHT22;2663;53.588;10.010;2023-02-28T12:33:11;9.60;88.00
5280;DHT22;2663;53.588;10.010;2023-02-28T12:41:15;8.70;87.80
5280;DHT22;2663;53.588;10.010;2023-02-28T12:43:51;8.80;88.20
5280;DHT22;2663;53.588;10.010;2023-02-28T12:46:25;8.80;87.90
5280;DHT22;2663;53.588;10.010;2023-02-28T12:49:19;8.90;88.00
5280;DHT22;2663;53.588;10.010;2023-02-28T12:51:48;9.00;87.40
5280;DHT22;2663;53.588;10.010;2023-02-28T12:54:27;8.90;86.00
5280;DHT22;2663;53.588;10.010;2023-02-28T12:57:22;8.80;86.90
5280;DHT22;2663;53.588;10.010;2023-02-28T13:00:03;8.80;86.10
5280;DHT22;2663;53.588;10.010;2023-02-28T13:02:43;8.80;86.50
5280;DHT22;2663;53.588;10.010;2023-02-28T13:05:44;8.90;87.10
5280;DHT22;2663;53.588;10.010;2023-02-28T13:11:05;9.00;85.70
5280;DHT22;2663;53.588;10.010;2023-02-28T13:13:45;9.00;85.20
5280;DHT22;2663;53.588;10.010;2023-02-28T13:16:13;9.00;85.50
5280;DHT22;2663;53.588;10.010;2023-02-28T13:18:46;9.10;85.60
5280;DHT22;2663;53.588;10.010;2023-02-28T13:21:27;9.10;85.10
5280;DHT22;2663;53.588;10.010;2023-02-28T13:24:04;9.00;84.30
5280;DHT22;2663;53.588;10.010;2023-02-28T13:29:28;9.10;86.20
5280;DHT22;2663;53.588;10.010;2023-02-28T13:34:38;9.20;83.60
5280;DHT22;2663;53.588;10.010;2023-02-28T13:39:45;9.00;83.70
5280;DHT22;2663;53.588;10.010;2023-02-28T13:42:36;9.10;83.30
5280;DHT22;2663;53.588;10.010;2023-02-28T13:47:45;9.20;83.00
5280;DHT22;2663;53.588;10.010;2023-02-28T13:59:01;9.20;82.20
5280;DHT22;2663;53.588;10.010;2023-02-28T14:07:03;9.50;80.80
5280;DHT22;2663;53.588;10.010;2023-02-28T14:09:39;9.50;80.50
5280;DHT22;2663;53.588;10.010;2023-02-28T14:15:28;9.60;81.60
5280;DHT22;2663;53.588;10.010;2023-02-28T14:17:57;9.70;80.70
5280;DHT22;2663;53.588;10.010;2023-02-28T14:20:29;9.70;82.20
5280;DHT22;2663;53.588;10.010;2023-02-28T14:23:15;9.60;82.60
5280;DHT22;2663;53.588;10.010;2023-02-28T14:25:53;9.70;82.70
5280;DHT22;2663;53.588;10.010;2023-02-28T14:28:27;9.60;81.50
5280;DHT22;2663;53.588;10.010;2023-02-28T14:36:40;9.60;80.30
5280;DHT22;2663;53.588;10.010;2023-02-28T14:39:16;9.50;80.10
5280;DHT22;2663;53.588;10.010;2023-02-28T14:41:44;9.50;80.60
5280;DHT22;2663;53.588;10.010;2023-02-28T14:44:18;9.40;81.00
5280;DHT22;2663;53.588;10.010;2023-02-28T14:46:49;9.30;82.10
5280;DHT22;2663;53.588;10.010;2023-02-28T14:51:45;9.30;82.80
5280;DHT22;2663;53.588;10.010;2023-02-28T14:54:15;9.30;81.50
5280;DHT22;2663;53.588;10.010;2023-02-28T14:56:43;9.20;82.20
5280;DHT22;2663;53.588;10.010;2023-02-28T14:59:31;9.30;81.90
5280;DHT22;2663;53.588;10.010;2023-02-28T15:02:15;9.50;87.10
5280;DHT22;2663;53.588;10.010;2023-02-28T15:04:42;9.60;82.50
5280;DHT22;2663;53.588;10.010;2023-02-28T15:07:15;9.60;83.30
5280;DHT22;2663;53.588;10.010;2023-02-28T15:09:42;9.60;82.80
5280;DHT22;2663;53.588;10.010;2023-02-28T15:12:14;9.40;82.20
5280;DHT22;2663;53.588;10.010;2023-02-28T15:14:44;9.30;82.30
5280;DHT22;2663;53.588;10.010;2023-02-28T15:17:22;9.10;81.70
5280;DHT22;2663;53.588;10.010;2023-02-28T15:19:52;9.10;81.20
5280;DHT22;2663;53.588;10.010;2023-02-28T15:22:27;9.10;82.00
5280;DHT22;2663;53.588;10.010;2023-02-28T15:24:55;9.10;81.90
5280;DHT22;2663;53.588;10.010;2023-02-28T15:27:31;8.90;82.30
5280;DHT22;2663;53.588;10.010;2023-02-28T15:30:00;8.80;82.00
5280;DHT22;2663;53.588;10.010;2023-02-28T15:32:36;8.80;82.00
5280;DHT22;2663;53.588;10.010;2023-02-28T15:37:57;8.80;81.70
5280;DHT22;2663;53.588;10.010;2023-02-28T15:40:30;8.70;82.30
5280;DHT22;2663;53.588;10.010;2023-02-28T15:48:23;8.60;81.70
5280;DHT22;2663;53.588;10.010;2023-02-28T15:50:56;8.60;82.10
5280;DHT22;2663;53.588;10.010;2023-02-28T15:53:32;7.70;81.80
5280;DHT22;2663;53.588;10.010;2023-02-28T15:56:06;8.60;81.90
5280;DHT22;2663;53.588;10.010;2023-02-28T15:58:35;8.50;82.90
5280;DHT22;2663;53.588;10.010;2023-02-28T16:01:27;8.40;83.50
5280;DHT22;2663;53.588;10.010;2023-02-28T16:03:59;8.40;84.00
5280;DHT22;2663;53.588;10.010;2023-02-28T16:06:37;8.40;84.60
5280;DHT22;2663;53.588;10.010;2023-02-28T16:09:06;8.40;83.60
5280;DHT22;2663;53.588;10.010;2023-02-28T16:11:41;8.40;83.80
5280;DHT22;2663;53.588;10.010;2023-02-28T16:14:22;8.30;83.50
5280;DHT22;2663;53.588;10.010;2023-02-28T16:16:52;8.30;83.80
5280;DHT22;2663;53.588;10.010;2023-02-28T16:19:19;8.30;83.80
5280;DHT22;2663;53.588;10.010;2023-02-28T16:21:47;8.20;83.80
5280;DHT22;2663;53.588;10.010;2023-02-28T16:24:14;8.10;83.70
5280;DHT22;2663;53.588;10.010;2023-02-28T16:26:42;7.90;84.00
5280;DHT22;2663;53.588;10.010;2023-02-28T16:29:23;8.10;83.90
5280;DHT22;2663;53.588;10.010;2023-02-28T16:31:51;8.00;84.80
5280;DHT22;2663;53.588;10.010;2023-02-28T16:34:17;7.90;85.30
5280;DHT22;2663;53.588;10.010;2023-02-28T16:36:47;7.90;85.40
5280;DHT22;2663;53.588;10.010;2023-02-28T16:39:14;7.90;85.20
5280;DHT22;2663;53.588;10.010;2023-02-28T16:41:45;7.80;85.60
5280;DHT22;2663;53.588;10.010;2023-02-28T16:44:26;7.80;86.20
5280;DHT22;2663;53.588;10.010;2023-02-28T16:46:54;7.70;86.50
5280;DHT22;2663;53.588;10.010;2023-02-28T16:49:20;7.70;86.90
5280;DHT22;2663;53.588;10.010;2023-02-28T16:51:47;7.70;87.20
5280;DHT22;2663;53.588;10.010;2023-02-28T16:54:14;7.70;87.70
5280;DHT22;2663;53.588;10.010;2023-02-28T16:56:44;7.60;88.40
5280;DHT22;2663;53.588;10.010;2023-02-28T16:59:12;7.60;89.90
5280;DHT22;2663;53.588;10.010;2023-02-28T17:01:40;7.50;88.30
5280;DHT22;2663;53.588;10.010;2023-02-28T17:04:08;7.60;89.30
5280;DHT22;2663;53.588;10.010;2023-02-28T17:06:35;7.60;88.80
5280;DHT22;2663;53.588;10.010;2023-02-28T17:09:02;7.60;88.30
5280;DHT22;2663;53.588;10.010;2023-02-28T17:11:29;7.60;88.70
5280;DHT22;2663;53.588;10.010;2023-02-28T17:13:56;7.50;88.50
5280;DHT22;2663;53.588;10.010;2023-02-28T17:19:01;7.50;90.30
5280;DHT22;2663;53.588;10.010;2023-02-28T17:21:29;7.30;90.40
5280;DHT22;2663;53.588;10.010;2023-02-28T17:23:56;7.30;90.10
5280;DHT22;2663;53.588;10.010;2023-02-28T17:26:23;7.30;90.20
5280;DHT22;2663;53.588;10.010;2023-02-28T17:28:53;7.20;91.20
5280;DHT22;2663;53.588;10.010;2023-02-28T17:31:23;7.20;92.70
5280;DHT22;2663;53.588;10.010;2023-02-28T17:33:50;7.40;93.10
5280;DHT22;2663;53.588;10.010;2023-02-28T17:36:23;7.60;91.60
5280;DHT22;2663;53.588;10.010;2023-02-28T17:38:51;7.10;92.50
5280;DHT22;2663;53.588;10.010;2023-02-28T17:41:19;7.00;93.40
5280;DHT22;2663;53.588;10.010;2023-02-28T17:43:45;6.90;93.10
5280;DHT22;2663;53.588;10.010;2023-02-28T17:46:19;6.80;92.70
5280;DHT22;2663;53.588;10.010;2023-02-28T17:48:48;6.80;93.50
5280;DHT22;2663;53.588;10.010;2023-02-28T17:51:15;7.70;94.40
5280;DHT22;2663;53.588;10.010;2023-02-28T17:53:42;6.70;93.30
5280;DHT22;2663;53.588;10.010;2023-02-28T17:56:19;6.70;93.40
5280;DHT22;2663;53.588;10.010;2023-02-28T17:58:47;6.70;93.00
5280;DHT22;2663;53.588;10.010;2023-02-28T18:01:13;6.70;93.20
5280;DHT22;2663;53.588;10.010;2023-02-28T18:03:40;6.70;93.20
5280;DHT22;2663;53.588;10.010;2023-02-28T18:06:10;6.60;94.30
5280;DHT22;2663;53.588;10.010;2023-02-28T18:08:39;6.50;93.30
5280;DHT22;2663;53.588;10.010;2023-02-28T18:11:06;6.90;94.70
5280;DHT22;2663;53.588;10.010;2023-02-28T18:13:45;6.40;94.10
5280;DHT22;2663;53.588;10.010;2023-02-28T18:16:13;6.50;95.00
5280;DHT22;2663;53.588;10.010;2023-02-28T18:18:40;6.40;95.00
5280;DHT22;2663;53.588;10.010;2023-02-28T18:21:08;6.60;95.70